Time;durP1;ratioP1;P1;durP2;ratioP2;P2;SDS_P1;SDS_P2;PMS_P1;PMS_P2;Temp;Humidity;BMP_temperature;BMP_pressure;BME280_temperature;BME280_humidity;BME280_pressure;Samples;Min_cycle;Max_cycle;Signal;HPM_P1;HPM_P2
2022/10/03 00:00:15;;;;;;;13.27;4.50;;;;;;;7.66;100.00;102405.97;5136617;27;20113;-83
2022/10/03 00:02:56;;;;;;;14.30;4.88;;;;;;;7.64;100.00;102407.13;5137209;27;20019;-83
2022/10/03 00:05:34;;;;;;;18.83;5.07;;;;;;;7.61;100.00;102402.88;5155354;27;20042;-83
2022/10/03 00:08:12;;;;;;;14.60;4.90;;;;;;;7.60;100.00;102403.03;5136336;27;20042;-83
2022/10/03 00:10:56;;;;;;;14.98;5.28;;;;;;;7.57;100.00;102404.19;5136610;27;20084;-83
2022/10/03 00:13:45;;;;;;;14.03;4.73;;;;;;;7.54;100.00;102407.22;5137043;27;20439;-83
2022/10/03 00:16:18;;;;;;;15.90;5.07;;;;;;;7.53;100.00;102405.53;5137425;27;20374;-83
2022/10/03 00:19:16;;;;;;;14.35;5.03;;;;;;;7.51;100.00;102399.44;5136404;27;20030;-83
2022/10/03 00:22:17;;;;;;;19.13;4.85;;;;;;;7.49;100.00;102404.16;5136787;27;20481;-83
2022/10/03 00:25:16;;;;;;;23.75;5.30;;;;;;;7.47;100.00;102414.25;5136502;27;20114;-83
2022/10/03 00:28:12;;;;;;;17.07;5.17;;;;;;;7.46;100.00;102412.56;5155059;27;20034;-83
2022/10/03 00:30:45;;;;;;;17.13;4.90;;;;;;;7.44;100.00;102418.13;5103646;27;20077;-83
2022/10/03 00:33:26;;;;;;;20.60;5.35;;;;;;;7.42;100.00;102414.72;5158924;27;20035;-83
2022/10/03 00:36:10;;;;;;;22.90;5.93;;;;;;;7.41;100.00;102426.53;5141129;27;20080;-83
2022/10/03 00:38:50;;;;;;;16.92;4.90;;;;;;;7.39;100.00;102415.03;5141085;27;20023;-83
2022/10/03 00:41:53;;;;;;;17.33;5.00;;;;;;;7.36;100.00;102421.59;5140462;27;20400;-83
2022/10/03 00:45:00;;;;;;;11.77;5.05;;;;;;;7.34;100.00;102426.31;5128588;27;20375;-83
2022/10/03 00:47:55;;;;;;;17.60;5.30;;;;;;;7.34;100.00;102428.16;5140405;27;20030;-83
2022/10/03 00:51:12;;;;;;;14.68;5.55;;;;;;;7.31;100.00;102429.31;5140212;27;20497;-83
2022/10/03 00:53:40;;;;;;;18.15;4.80;;;;;;;7.29;100.00;102443.97;5105417;27;20031;-83
2022/10/03 00:56:24;;;;;;;21.00;5.37;;;;;;;7.28;100.00;102437.72;5159023;27;20027;-83
2022/10/03 00:59:02;;;;;;;15.18;4.95;;;;;;;7.26;100.00;102439.72;5140031;27;20023;-83
2022/10/03 01:01:27;;;;;;;14.50;5.32;;;;;;;7.26;100.00;102436.19;5139702;27;20465;-84
2022/10/03 01:03:58;;;;;;;14.70;4.97;;;;;;;7.25;100.00;102442.56;5139734;27;20022;-83
2022/10/03 01:06:41;;;;;;;14.48;5.07;;;;;;;7.24;100.00;102440.91;5158122;27;20042;-82
2022/10/03 01:09:15;;;;;;;15.77;5.40;;;;;;;7.27;100.00;102446.81;5139919;27;20027;-83
2022/10/03 01:12:01;;;;;;;17.13;5.45;;;;;;;7.23;100.00;102447.28;5139612;27;20482;-84
2022/10/03 01:14:53;;;;;;;13.65;5.35;;;;;;;7.20;100.00;102454.72;5139542;27;20033;-84
2022/10/03 01:17:48;;;;;;;16.80;5.18;;;;;;;7.20;100.00;102460.09;5139246;27;20026;-83
2022/10/03 01:20:40;;;;;;;13.43;4.78;;;;;;;7.17;100.00;102464.94;5139735;27;20382;-84
2022/10/03 01:23:25;;;;;;;21.65;5.80;;;;;;;7.16;100.00;102465.94;5158026;27;20027;-83
2022/10/03 01:26:22;;;;;;;17.58;5.35;;;;;;;7.14;100.00;102466.09;5139837;27;20458;-83
2022/10/03 01:32:04;;;;;;;16.63;5.05;;;;;;;7.14;100.00;102459.84;5157857;27;20067;-83
2022/10/03 01:34:41;;;;;;;16.73;5.05;;;;;;;7.13;100.00;102466.25;5139790;27;20031;-83
2022/10/03 01:37:21;;;;;;;17.70;5.68;;;;;;;7.13;100.00;102471.66;5139137;27;20056;-83
2022/10/03 01:40:08;;;;;;;16.83;5.05;;;;;;;7.13;100.00;102464.41;5139339;27;20022;-83
2022/10/03 01:42:57;;;;;;;23.40;5.90;;;;;;;7.11;100.00;102471.78;5138370;27;20126;-83
2022/10/03 01:45:51;;;;;;;16.77;5.43;;;;;;;7.11;100.00;102470.97;5139340;27;20422;-83
2022/10/03 01:48:54;;;;;;;18.83;5.80;;;;;;;7.10;100.00;102467.41;5139303;27;20025;-83
2022/10/03 01:51:44;;;;;;;19.85;5.57;;;;;;;7.10;100.00;102483.63;5154739;27;20035;-83
2022/10/03 01:54:28;;;;;;;15.32;5.32;;;;;;;7.05;100.00;102468.88;5157727;27;20026;-83
2022/10/03 01:57:00;;;;;;;22.30;5.70;;;;;;;7.06;100.00;102463.31;5157683;27;20033;-83
2022/10/03 01:59:49;;;;;;;26.20;5.90;;;;;;;7.05;100.00;102466.19;5138596;27;20026;-83
2022/10/03 02:02:32;;;;;;;17.38;6.50;;;;;;;7.03;100.00;102466.34;5138965;27;20049;-83
2022/10/03 02:05:00;;;;;;;16.25;5.53;;;;;;;7.04;100.00;102465.31;5157357;27;20050;-83
2022/10/03 02:07:44;;;;;;;15.85;5.53;;;;;;;7.02;100.00;102462.75;5157466;27;20022;-84
2022/10/03 02:10:37;;;;;;;17.35;5.72;;;;;;;7.03;100.00;102474.44;5138589;27;20027;-83
2022/10/03 02:13:07;;;;;;;12.75;5.80;;;;;;;7.02;100.00;102478.97;5138539;27;20030;-83
2022/10/03 02:16:00;;;;;;;16.88;6.05;;;;;;;7.01;100.00;102481.81;5156614;27;20155;-83
2022/10/03 02:18:44;;;;;;;15.32;6.47;;;;;;;6.99;100.00;102479.25;5156855;27;20514;-83
2022/10/03 02:21:16;;;;;;;20.23;6.40;;;;;;;6.99;100.00;102475.72;5156865;27;20048;-84
2022/10/03 02:23:44;;;;;;;19.05;6.25;;;;;;;7.01;100.00;102476.41;5138474;27;20471;-83
2022/10/03 02:26:25;;;;;;;21.90;5.85;;;;;;;6.99;100.00;102481.13;5121499;27;20052;-83
2022/10/03 02:29:20;;;;;;;21.90;7.03;;;;;;;6.98;100.00;102476.72;5156672;27;20026;-83
2022/10/03 02:32:05;;;;;;;15.35;6.68;;;;;;;6.95;100.00;102472.50;5156849;27;20030;-83
2022/10/03 02:35:09;;;;;;;18.65;6.72;;;;;;;6.93;100.00;102473.63;5138021;27;20382;-84
2022/10/03 02:37:57;;;;;;;17.45;6.85;;;;;;;6.92;100.00;102480.03;5137919;27;20031;-83
2022/10/03 02:40:55;;;;;;;19.83;7.32;;;;;;;6.93;100.00;102484.44;5138196;27;20109;-83
2022/10/03 02:43:42;;;;;;;17.25;6.78;;;;;;;6.95;100.00;102479.72;5137849;27;20026;-83
2022/10/03 02:46:32;;;;;;;24.83;6.65;;;;;;;6.94;100.00;102476.19;5157246;27;20031;-84
2022/10/03 02:49:10;;;;;;;19.65;6.75;;;;;;;6.90;100.00;102471.25;5138303;27;20079;-83
2022/10/03 02:51:54;;;;;;;18.85;6.93;;;;;;;6.87;100.00;102479.66;5138079;27;20476;-83
2022/10/03 02:54:55;;;;;;;23.70;6.43;;;;;;;6.83;100.00;102465.59;5136749;27;20048;-83
2022/10/03 02:57:47;;;;;;;16.13;6.43;;;;;;;6.81;100.00;102481.09;5155976;27;20022;-83
2022/10/03 03:00:18;;;;;;;17.23;6.63;;;;;;;6.78;100.00;102474.13;5137358;27;20132;-83
2022/10/03 03:03:15;;;;;;;16.10;6.65;;;;;;;6.77;100.00;102477.00;5156387;27;20099;-83
2022/10/03 03:06:03;;;;;;;20.33;6.07;;;;;;;6.73;100.00;102478.28;5137890;27;20110;-83
2022/10/03 03:08:57;;;;;;;16.75;6.85;;;;;;;6.72;100.00;102476.56;5137729;27;20027;-83
2022/10/03 03:11:58;;;;;;;17.52;6.55;;;;;;;6.71;100.00;102475.75;5137707;27;20125;-83
2022/10/03 03:14:54;;;;;;;19.00;6.70;;;;;;;6.71;100.00;102480.28;5137956;27;20026;-83
2022/10/03 03:18:02;;;;;;;23.50;7.28;;;;;;;6.65;100.00;102482.56;5137637;27;20038;-83
2022/10/03 03:20:42;;;;;;;17.90;6.82;;;;;;;6.66;100.00;102481.59;5136996;27;20022;-83
2022/10/03 03:23:14;;;;;;;18.65;6.97;;;;;;;6.68;100.00;102478.75;5137257;27;20054;-83
2022/10/03 03:25:54;;;;;;;18.67;7.10;;;;;;;6.67;100.00;102487.81;5155707;27;20031;-83
2022/10/03 03:28:25;;;;;;;15.68;6.93;;;;;;;6.66;100.00;102486.13;5137482;27;20031;-83
2022/10/03 03:31:17;;;;;;;14.15;6.78;;;;;;;6.66;100.00;102486.13;5137816;27;20418;-83
2022/10/03 03:34:08;;;;;;;21.23;6.50;;;;;;;6.63;100.00;102487.28;5156225;27;20034;-83
2022/10/03 03:37:01;;;;;;;20.50;7.82;;;;;;;6.62;100.00;102485.56;5137864;27;20352;-84
2022/10/03 03:39:54;;;;;;;17.58;6.47;;;;;;;6.61;100.00;102491.13;5137213;27;20023;-84
2022/10/03 03:42:33;;;;;;;17.33;7.53;;;;;;;6.57;100.00;102490.56;5136871;27;20462;-83
2022/10/03 03:45:24;;;;;;;16.83;6.88;;;;;;;6.58;100.00;102496.81;5155523;27;20110;-83
2022/10/03 03:48:05;;;;;;;17.52;7.10;;;;;;;6.57;100.00;102490.56;5136659;27;20057;-83
2022/10/03 03:50:59;;;;;;;15.52;7.13;;;;;;;6.55;100.00;102497.94;5137454;27;20029;-83
2022/10/03 03:53:50;;;;;;;19.75;7.22;;;;;;;6.54;100.00;102493.56;5136777;27;20034;-83
2022/10/03 03:56:18;;;;;;;23.65;7.40;;;;;;;6.53;100.00;102499.97;5136785;27;20034;-83
2022/10/03 03:59:08;;;;;;;20.45;7.25;;;;;;;6.54;100.00;102500.78;5136335;27;20058;-83
2022/10/03 04:01:45;;;;;;;19.45;6.88;;;;;;;6.55;100.00;102499.81;5136955;27;20043;-84
2022/10/03 04:04:35;;;;;;;20.80;7.57;;;;;;;6.54;100.00;102506.19;5136107;27;20524;-83
2022/10/03 04:07:42;;;;;;;17.77;8.25;;;;;;;6.54;100.00;102506.19;5140895;27;20034;-83
2022/10/03 04:10:46;;;;;;;15.05;6.75;;;;;;;6.54;100.00;102503.50;5147892;27;20085;-83
2022/10/03 04:13:24;;;;;;;18.50;7.53;;;;;;;6.52;100.00;102508.19;5126141;27;20033;-83
2022/10/03 04:16:08;;;;;;;19.30;7.18;;;;;;;6.50;100.00;102508.34;5141358;27;20079;-83
2022/10/03 04:18:59;;;;;;;17.35;6.95;;;;;;;6.48;100.00;102508.50;5141460;27;20031;-83
2022/10/03 04:22:02;;;;;;;25.15;7.30;;;;;;;6.46;100.00;102506.94;5140651;27;20117;-83
2022/10/03 04:24:49;;;;;;;15.02;6.75;;;;;;;6.46;100.00;102509.63;5141081;27;20041;-84
2022/10/03 04:27:31;;;;;;;18.42;6.38;;;;;;;6.46;100.00;102504.25;5159044;27;20109;-83
2022/10/03 04:30:08;;;;;;;17.33;6.70;;;;;;;6.44;100.00;102509.78;5140721;27;20026;-83
2022/10/03 04:32:44;;;;;;;17.23;6.90;;;;;;;6.45;100.00;102505.22;5140670;27;20033;-82
2022/10/03 04:35:30;;;;;;;18.98;7.03;;;;;;;6.43;100.00;102510.78;5140237;27;20034;-83
2022/10/03 04:38:19;;;;;;;16.50;6.40;;;;;;;6.41;100.00;102503.84;5140566;27;20030;-83
2022/10/03 04:41:03;;;;;;;16.38;6.40;;;;;;;6.41;100.00;102502.00;5158903;27;20075;-83
2022/10/03 04:43:44;;;;;;;21.17;6.53;;;;;;;6.42;100.00;102511.78;5139964;27;20038;-84
2022/10/03 04:46:34;;;;;;;18.52;6.72;;;;;;;6.42;100.00;102502.81;5140355;27;20027;-83
2022/10/03 04:49:05;;;;;;;18.80;6.90;;;;;;;6.48;100.00;102505.78;5140037;27;20027;-83
2022/10/03 04:52:14;;;;;;;18.05;7.07;;;;;;;6.55;100.00;102507.91;5158572;27;20034;-83
2022/10/03 04:54:55;;;;;;;17.92;6.35;;;;;;;6.61;100.00;102510.00;5148551;27;20042;-83
2022/10/03 04:57:34;;;;;;;17.42;6.47;;;;;;;6.56;100.00;102505.06;5139748;27;20106;-84
2022/10/03 05:00:51;;;;;;;11.77;6.30;;;;;;;6.53;100.00;102501.81;5158596;27;20076;-83
2022/10/03 05:04:11;;;;;;;17.77;6.22;;;;;;;6.50;100.00;102516.44;5105923;27;20419;-83
2022/10/03 05:06:50;;;;;;;13.43;5.97;;;;;;;6.46;100.00;102518.56;5135984;27;20046;-84
2022/10/03 05:09:26;;;;;;;12.40;6.13;;;;;;;6.42;100.00;102511.78;5139954;27;20061;-83
2022/10/03 05:12:30;;;;;;;18.55;5.80;;;;;;;6.39;100.00;102508.53;5158010;27;20027;-83
2022/10/03 05:15:08;;;;;;;20.33;6.10;;;;;;;6.38;100.00;102515.78;5139336;27;20106;-83
2022/10/03 05:17:51;;;;;;;18.33;6.22;;;;;;;6.40;100.00;102524.56;5139266;27;20040;-83
2022/10/03 05:20:45;;;;;;;15.73;6.35;;;;;;;6.37;100.00;102522.16;5158027;27;20462;-83
2022/10/03 05:23:37;;;;;;;25.55;7.65;;;;;;;6.38;100.00;102528.38;5127324;27;20046;-83
2022/10/03 05:26:22;;;;;;;16.92;6.57;;;;;;;6.37;100.00;102526.69;5140236;27;20061;-84
2022/10/03 05:29:00;;;;;;;18.17;5.97;;;;;;;6.36;100.00;102523.13;5158468;27;20037;-85
2022/10/03 05:31:43;;;;;;;20.10;6.80;;;;;;;6.38;100.00;102531.94;5139986;27;20404;-85
2022/10/03 05:34:15;;;;;;;13.32;6.18;;;;;;;6.37;100.00;102529.41;5139290;27;20038;-85
2022/10/03 05:37:07;;;;;;;16.92;6.55;;;;;;;6.38;100.00;102536.47;5139396;27;20378;-85
2022/10/03 05:39:42;;;;;;;18.60;6.55;;;;;;;6.39;100.00;102539.03;5139696;27;20125;-84
2022/10/03 05:42:33;;;;;;;19.05;6.43;;;;;;;6.38;100.00;102534.63;5138928;27;20121;-84
2022/10/03 05:45:30;;;;;;;16.60;6.18;;;;;;;6.40;100.00;102542.59;5158177;27;20034;-84
2022/10/03 05:48:05;;;;;;;15.45;6.22;;;;;;;6.42;100.00;102546.84;5138817;27;20023;-84
2022/10/03 05:50:49;;;;;;;15.82;6.78;;;;;;;6.46;100.00;102547.38;5138750;27;20026;-85
2022/10/03 05:53:48;;;;;;;16.05;6.47;;;;;;;6.46;100.00;102542.00;5139149;27;20062;-84
2022/10/03 05:56:34;;;;;;;13.85;6.57;;;;;;;6.48;100.00;102548.06;5138603;27;20042;-84
2022/10/03 05:59:30;;;;;;;22.67;7.18;;;;;;;6.54;100.00;102541.25;5138995;27;20117;-84
2022/10/03 06:02:31;;;;;;;17.65;6.70;;;;;;;6.61;100.00;102550.47;5157196;27;20490;-84
2022/10/03 06:05:05;;;;;;;20.70;7.13;;;;;;;6.64;100.00;102552.84;5156844;27;20042;-86
2022/10/03 06:07:39;;;;;;;14.93;6.63;;;;;;;6.64;100.00;102556.41;5138733;27;20045;-85
2022/10/03 06:10:27;;;;;;;19.00;7.35;;;;;;;6.68;100.00;102560.50;5137654;27;20041;-85
2022/10/03 06:13:22;;;;;;;23.33;7.28;;;;;;;6.72;100.00;102552.09;5138738;27;20069;-85
2022/10/03 06:16:20;;;;;;;16.27;7.10;;;;;;;6.81;100.00;102562.88;5138301;27;20019;-84
2022/10/03 06:18:52;;;;;;;19.52;7.97;;;;;;;6.86;100.00;102562.41;5138233;27;20019;-85
2022/10/03 06:21:43;;;;;;;16.63;7.43;;;;;;;6.92;100.00;102564.50;5137974;27;20117;-84
2022/10/03 06:24:40;;;;;;;19.60;7.70;;;;;;;7.00;100.00;102571.91;5101135;27;20394;-84
2022/10/03 06:27:38;;;;;;;24.85;7.70;;;;;;;7.05;100.00;102568.75;5138025;27;20064;-84
2022/10/03 06:30:33;;;;;;;17.13;7.35;;;;;;;7.07;100.00;102572.13;5156255;27;20471;-85
2022/10/03 06:33:14;;;;;;;18.08;7.43;;;;;;;7.06;100.00;102571.28;5128246;27;20044;-86
2022/10/03 06:35:57;;;;;;;17.15;7.80;;;;;;;7.05;100.00;102577.69;5156189;27;20030;-85
2022/10/03 06:38:54;;;;;;;20.17;7.63;;;;;;;7.05;100.00;102574.13;5137754;27;20035;-85
2022/10/03 06:41:40;;;;;;;17.58;7.72;;;;;;;7.05;100.00;102571.44;5138033;27;20481;-85
2022/10/03 06:44:33;;;;;;;16.42;7.18;;;;;;;7.08;100.00;102573.84;5156129;27;20019;-85
2022/10/03 06:47:23;;;;;;;17.25;8.10;;;;;;;7.11;100.00;102568.13;5138177;27;20031;-85
2022/10/03 06:50:11;;;;;;;12.95;7.25;;;;;;;7.15;100.00;102574.94;5137622;27;20488;-85
2022/10/03 06:52:57;;;;;;;16.05;8.50;;;;;;;7.18;100.00;102569.22;5156300;27;20404;-85
2022/10/03 06:55:31;;;;;;;20.85;7.82;;;;;;;7.20;100.00;102573.50;5137649;27;20489;-85
2022/10/03 06:58:34;;;;;;;18.55;8.60;;;;;;;7.26;100.00;102571.16;5137324;27;20527;-85
2022/10/03 07:01:18;;;;;;;20.77;8.23;;;;;;;7.33;100.00;102580.38;5136899;27;20026;-84
2022/10/03 07:04:17;;;;;;;16.27;9.05;;;;;;;7.38;100.00;102581.63;5137421;27;20121;-84
2022/10/03 07:07:08;;;;;;;21.85;8.50;;;;;;;7.45;100.00;102594.50;5137220;27;20079;-85
2022/10/03 07:10:11;;;;;;;21.17;9.02;;;;;;;7.49;100.00;102588.66;5138140;27;20037;-85
2022/10/03 07:13:10;;;;;;;16.10;8.60;;;;;;;7.57;100.00;102585.19;5137870;27;20035;-85
2022/10/03 07:16:07;;;;;;;18.38;8.73;;;;;;;7.65;100.00;102581.72;5138096;27;20038;-85
2022/10/03 07:18:51;;;;;;;15.30;8.67;;;;;;;7.71;100.00;102579.25;5155623;27;20033;-84
2022/10/03 07:22:01;;;;;;;19.13;8.70;;;;;;;7.80;100.00;102584.75;5137118;27;20026;-86
2022/10/03 07:24:40;;;;;;;18.45;9.07;;;;;;;7.88;100.00;102585.69;5081642;27;20044;-85
2022/10/03 07:27:18;;;;;;;19.30;9.30;;;;;;;7.98;100.00;102592.84;5155300;27;20038;-85
2022/10/03 07:30:03;;;;;;;22.67;9.75;;;;;;;8.08;100.00;102597.16;5137584;27;20023;-85
2022/10/03 07:33:03;;;;;;;17.17;9.82;;;;;;;8.19;100.00;102596.06;5137256;27;20044;-85
2022/10/03 07:39:08;;;;;;;26.88;10.65;;;;;;;8.46;100.00;102602.38;5155702;27;20049;-85
2022/10/03 07:41:44;;;;;;;19.27;10.00;;;;;;;8.58;100.00;102601.09;5136776;27;20019;-85
2022/10/03 07:44:41;;;;;;;22.63;10.13;;;;;;;8.70;100.00;102606.25;5137673;27;20027;-85
2022/10/03 07:47:31;;;;;;;22.95;10.20;;;;;;;8.83;100.00;102611.22;5137613;27;20031;-85
2022/10/03 07:50:18;;;;;;;19.27;10.43;;;;;;;8.96;100.00;102608.91;5137308;27;20030;-85
2022/10/03 07:53:09;;;;;;;22.77;10.35;;;;;;;9.10;100.00;102612.91;5137212;27;20383;-85
2022/10/03 07:55:56;;;;;;;21.17;9.80;;;;;;;9.24;100.00;102617.69;5137052;27;20044;-85
2022/10/03 07:58:37;;;;;;;21.95;9.10;;;;;;;9.36;100.00;102618.25;5136743;27;20081;-85
2022/10/03 08:01:10;;;;;;;24.50;9.20;;;;;;;9.47;100.00;102619.81;5136962;27;20391;-86
2022/10/03 08:03:54;;;;;;;22.95;9.82;;;;;;;9.60;100.00;102619.34;5136667;27;20074;-85
2022/10/03 08:06:37;;;;;;;16.20;9.10;;;;;;;9.69;100.00;102628.34;5154526;27;20050;-86
2022/10/03 08:09:37;;;;;;;20.25;9.45;;;;;;;9.84;100.00;102632.09;5155210;27;20037;-86
2022/10/03 08:12:27;;;;;;;19.63;9.30;;;;;;;10.00;100.00;102623.97;5155246;27;20076;-87
2022/10/03 08:15:14;;;;;;;21.60;9.93;;;;;;;10.21;100.00;102627.22;5135969;27;20050;-86
2022/10/03 08:18:10;;;;;;;22.50;8.93;;;;;;;10.38;100.00;102622.63;5136281;27;20025;-87
2022/10/03 08:20:48;;;;;;;19.55;8.30;;;;;;;10.51;100.00;102617.53;5136672;27;20106;-87
2022/10/03 08:23:25;;;;;;;15.32;7.90;;;;;;;10.64;100.00;102620.56;5136828;27;20460;-86
2022/10/03 08:25:57;;;;;;;23.15;8.00;;;;;;;10.73;100.00;102620.56;5155020;27;20051;-86
2022/10/03 08:28:25;;;;;;;17.63;7.40;;;;;;;10.79;100.00;102614.44;5136329;27;20039;-87
2022/10/03 08:31:03;;;;;;;15.48;7.85;;;;;;;10.87;100.00;102623.41;5136344;27;20492;-87
2022/10/03 08:33:43;;;;;;;21.70;7.40;;;;;;;10.97;100.00;102628.66;5135837;27;20041;-87
2022/10/03 08:36:46;;;;;;;20.08;7.25;;;;;;;11.14;100.00;102623.16;5136506;27;20038;-87
2022/10/03 08:39:39;;;;;;;14.15;6.57;;;;;;;11.40;100.00;102618.28;5136108;27;20121;-87
2022/10/03 08:42:23;;;;;;;14.37;6.60;;;;;;;11.68;100.00;102620.50;5136353;27;20206;-87
2022/10/03 08:45:20;;;;;;;18.83;6.85;;;;;;;11.89;100.00;102628.00;5137186;27;20030;-87
2022/10/03 08:47:52;;;;;;;16.70;6.30;;;;;;;12.05;100.00;102632.53;5136217;27;20034;-87
2022/10/03 08:50:55;;;;;;;16.77;5.75;;;;;;;12.15;100.00;102620.53;5137180;27;20025;-87
2022/10/03 08:53:57;;;;;;;13.02;4.57;;;;;;;12.25;100.00;102623.84;5140124;27;20034;-87
2022/10/03 08:56:53;;;;;;;15.17;5.30;;;;;;;12.38;100.00;102631.41;5139868;27;20026;-87
2022/10/03 08:59:19;;;;;;;10.07;4.85;;;;;;;12.51;100.00;102628.91;5139906;27;20041;-87
2022/10/03 09:02:15;;;;;;;12.57;5.00;;;;;;;12.67;100.00;102635.19;5139683;27;20034;-87
2022/10/03 09:05:23;;;;;;;12.52;4.55;;;;;;;12.78;100.00;102624.72;5139027;27;20046;-85
2022/10/03 09:08:07;;;;;;;7.95;4.60;;;;;;;12.90;100.00;102618.78;5139726;27;20092;-86
2022/10/03 09:10:46;;;;;;;11.13;3.63;;;;;;;13.01;100.00;102629.22;5140329;27;20041;-86
2022/10/03 09:14:02;;;;;;;16.08;4.40;;;;;;;13.19;100.00;102633.47;5139994;27;20026;-86
2022/10/03 09:16:53;;;;;;;11.20;4.60;;;;;;;13.39;100.00;102640.06;5056839;28;20559;-86
2022/10/03 09:19:51;;;;;;;11.38;3.92;;;;;;;13.67;100.00;102633.84;5056856;28;20078;-86
2022/10/03 09:22:35;;;;;;;16.48;4.75;;;;;;;14.14;99.73;102626.16;5128481;27;20079;-86
2022/10/03 09:25:23;;;;;;;13.43;3.97;;;;;;;14.45;96.61;102630.41;5158463;27;20019;-86
2022/10/03 09:28:11;;;;;;;9.57;3.78;;;;;;;14.69;96.12;102629.13;5158089;27;20519;-86
2022/10/03 09:30:56;;;;;;;12.60;3.17;;;;;;;14.85;91.78;102620.66;5157435;27;20116;-86
2022/10/03 09:33:59;;;;;;;14.50;3.38;;;;;;;15.00;89.71;102619.66;5139459;27;20057;-86
2022/10/03 09:37:00;;;;;;;7.03;2.70;;;;;;;15.07;88.35;102610.47;5139185;27;20030;-86
2022/10/03 09:39:37;;;;;;;12.02;3.05;;;;;;;15.35;87.83;102603.22;5107377;27;20129;-86
2022/10/03 09:42:25;;;;;;;12.23;4.75;;;;;;;15.56;89.03;102608.56;5139457;27;20042;-86
2022/10/03 09:45:13;;;;;;;9.50;2.67;;;;;;;15.77;85.44;102601.25;5138913;27;20022;-86
2022/10/03 09:47:57;;;;;;;7.35;2.72;;;;;;;15.90;85.20;102604.03;5157352;27;20033;-86
2022/10/03 09:51:02;;;;;;;9.73;2.38;;;;;;;16.12;83.55;102604.69;5139016;27;20061;-86
2022/10/03 09:53:52;;;;;;;13.30;2.40;;;;;;;16.37;81.36;102592.25;5157168;27;20019;-84
2022/10/03 09:56:38;;;;;;;6.57;2.75;;;;;;;16.71;80.06;102584.81;5157084;27;20027;-84
2022/10/03 09:59:26;;;;;;;10.53;2.13;;;;;;;16.90;78.71;102592.16;5138793;27;20026;-84
2022/10/03 10:02:13;;;;;;;8.13;2.67;;;;;;;17.03;78.06;102585.81;5138853;27;20026;-84
2022/10/03 10:04:59;;;;;;;7.85;2.00;;;;;;;17.05;76.73;102586.47;5156360;27;20023;-84
2022/10/03 10:07:44;;;;;;;8.10;2.22;;;;;;;17.18;72.21;102591.03;5138492;27;20523;-84
2022/10/03 10:10:41;;;;;;;8.50;1.90;;;;;;;17.46;75.04;102587.94;5156927;27;20019;-84
2022/10/03 10:13:21;;;;;;;6.43;1.80;;;;;;;17.62;71.76;102589.31;5138606;27;20093;-83
2022/10/03 10:15:47;;;;;;;10.20;2.17;;;;;;;17.65;70.00;102585.31;5138548;27;20122;-85
2022/10/03 10:18:42;;;;;;;9.10;1.90;;;;;;;17.82;72.00;102583.72;5138511;27;20129;-85
2022/10/03 10:21:23;;;;;;;7.40;2.40;;;;;;;17.79;69.25;102578.66;5139185;27;20019;-85
2022/10/03 10:24:00;;;;;;;11.32;1.95;;;;;;;17.76;69.38;102587.34;5138095;27;20031;-85
2022/10/03 10:26:38;;;;;;;9.63;1.77;;;;;;;17.76;69.44;102595.59;5139109;27;20075;-84
2022/10/03 10:29:28;;;;;;;10.07;2.00;;;;;;;17.78;69.06;102592.63;5138580;27;20057;-85
2022/10/03 10:32:31;;;;;;;6.90;2.40;;;;;;;17.58;69.85;102584.50;5137714;27;20091;-85
2022/10/03 10:35:35;;;;;;;10.48;1.83;;;;;;;17.74;70.65;102577.66;5138117;27;20370;-85
2022/10/03 10:38:33;;;;;;;7.97;2.40;;;;;;;17.78;69.75;102576.97;5113504;27;20088;-84
2022/10/03 10:41:22;;;;;;;6.05;1.92;;;;;;;17.86;66.71;102578.59;5138125;27;20068;-85
2022/10/03 10:44:07;;;;;;;6.72;1.63;;;;;;;17.99;65.78;102583.19;5137914;27;20019;-85
2022/10/03 10:46:52;;;;;;;6.80;2.07;;;;;;;18.04;64.82;102586.09;5137821;27;20182;-83
2022/10/03 10:49:37;;;;;;;5.18;1.58;;;;;;;17.93;65.08;102586.84;5155175;27;20050;-85
2022/10/03 10:52:24;;;;;;;4.53;1.85;;;;;;;17.89;65.78;102586.41;5137598;27;20035;-85
2022/10/03 10:55:27;;;;;;;10.18;2.13;;;;;;;17.98;67.26;102585.13;5156635;27;20039;-85
2022/10/03 10:58:30;;;;;;;7.90;1.67;;;;;;;18.37;65.54;102588.56;5138095;27;20347;-84
2022/10/03 11:01:25;;;;;;;8.43;1.77;;;;;;;18.60;63.97;102589.81;5155870;27;20067;-85
2022/10/03 11:04:20;;;;;;;8.90;1.70;;;;;;;19.48;60.62;102581.41;5137869;27;20386;-84
2022/10/03 11:07:25;;;;;;;8.05;2.13;;;;;;;21.31;60.13;102583.28;5156175;27;20035;-84
2022/10/03 11:09:59;;;;;;;6.72;1.92;;;;;;;23.15;50.35;102583.78;5137360;27;20034;-84
2022/10/03 11:12:46;;;;;;;8.38;2.10;;;;;;;25.17;48.27;102581.47;5155918;27;20118;-85
2022/10/03 11:15:36;;;;;;;6.77;2.17;;;;;;;27.16;43.97;102576.06;5136226;27;20087;-85
2022/10/03 11:18:04;;;;;;;8.75;2.03;;;;;;;28.86;36.03;102571.84;5156044;27;20030;-85
2022/10/03 11:20:51;;;;;;;7.97;1.55;;;;;;;30.69;37.37;102559.94;5137024;27;20088;-85
2022/10/03 11:23:38;;;;;;;7.13;2.03;;;;;;;32.39;35.91;102555.88;5137532;27;20026;-86
2022/10/03 11:26:32;;;;;;;7.15;2.47;;;;;;;33.10;28.55;102548.47;5137560;27;20092;-86
2022/10/03 11:29:36;;;;;;;7.77;2.00;;;;;;;33.80;31.06;102538.06;5155929;27;20023;-85
2022/10/03 11:32:22;;;;;;;5.90;1.83;;;;;;;34.11;30.59;102536.97;5155441;27;20072;-86
2022/10/03 11:35:06;;;;;;;5.55;2.38;;;;;;;34.72;29.00;102538.69;5136887;27;20103;-85
2022/10/03 11:38:03;;;;;;;4.30;2.30;;;;;;;35.75;29.16;102538.19;5136828;27;20046;-85
2022/10/03 11:40:44;;;;;;;3.90;2.10;;;;;;;36.64;24.65;102531.13;5138463;27;20042;-86
2022/10/03 11:43:34;;;;;;;5.17;2.37;;;;;;;37.25;22.68;102528.56;5155449;27;20019;-86
2022/10/03 11:46:28;;;;;;;5.85;2.40;;;;;;;35.78;27.00;102534.69;5136507;27;20037;-86
2022/10/03 11:49:11;;;;;;;6.10;2.35;;;;;;;36.38;24.80;102537.16;5155283;27;20019;-86
2022/10/03 11:51:47;;;;;;;6.38;2.83;;;;;;;34.50;22.79;102534.19;5136480;27;20042;-86
2022/10/03 11:54:27;;;;;;;6.10;2.75;;;;;;;32.33;25.80;102532.75;5136820;27;20599;-85
2022/10/03 11:57:07;;;;;;;6.20;2.67;;;;;;;30.20;28.96;102531.47;5136915;27;20037;-86
2022/10/03 11:59:50;;;;;;;5.93;2.60;;;;;;;28.91;32.55;102524.31;5136471;27;20015;-85
2022/10/03 12:02:25;;;;;;;7.07;2.28;;;;;;;28.08;32.23;102527.22;5136072;27;20035;-86
2022/10/03 12:05:21;;;;;;;7.00;2.45;;;;;;;26.96;33.27;102524.09;5136143;27;20399;-86
2022/10/03 12:11:02;;;;;;;8.43;2.30;;;;;;;30.37;29.91;102525.28;5155182;27;20413;-85
2022/10/03 12:13:51;;;;;;;4.32;2.20;;;;;;;35.00;27.59;102524.91;5137104;27;20038;-86
2022/10/03 12:16:49;;;;;;;11.38;2.70;;;;;;;38.65;22.51;102517.25;5137366;27;20035;-85
2022/10/03 12:19:23;;;;;;;8.23;2.60;;;;;;;40.13;19.23;102519.03;5136799;27;20117;-85
2022/10/03 12:22:04;;;;;;;7.60;2.90;;;;;;;40.77;19.24;102511.88;5137415;27;20121;-86
2022/10/03 12:24:41;;;;;;;6.97;3.23;;;;;;;41.08;19.67;102504.19;5136974;27;20125;-85
2022/10/03 12:27:14;;;;;;;4.95;3.40;;;;;;;40.75;16.59;102498.06;5138837;27;20087;-86
2022/10/03 12:29:44;;;;;;;8.45;3.50;;;;;;;37.98;17.77;102493.38;5140583;27;20053;-86
2022/10/03 12:32:28;;;;;;;7.88;3.50;;;;;;;35.62;22.62;102503.44;5140273;27;20054;-86
2022/10/03 12:35:13;;;;;;;6.78;2.80;;;;;;;33.02;25.95;102489.09;5140336;27;20058;-86
2022/10/03 12:37:56;;;;;;;5.90;3.07;;;;;;;31.51;27.93;102489.13;5140509;27;20031;-86
2022/10/03 12:40:29;;;;;;;6.32;2.53;;;;;;;30.21;27.52;102484.75;5140049;27;20027;-86
2022/10/03 12:43:21;;;;;;;6.22;2.60;;;;;;;30.02;30.21;102484.81;5140456;27;20030;-86
2022/10/03 12:45:54;;;;;;;5.65;2.90;;;;;;;29.42;28.39;102478.00;5139379;27;20042;-85
2022/10/03 12:48:41;;;;;;;10.57;3.00;;;;;;;29.05;29.77;102477.72;5140830;27;20050;-86
2022/10/03 12:51:22;;;;;;;6.00;2.77;;;;;;;29.20;30.34;102476.66;5140068;27;20035;-86
2022/10/03 12:53:53;;;;;;;8.68;2.90;;;;;;;30.36;27.09;102480.81;5158984;27;20027;-86
2022/10/03 12:56:21;;;;;;;7.07;2.63;;;;;;;31.07;25.58;102488.81;5139585;27;20035;-85
2022/10/03 12:59:01;;;;;;;7.78;2.60;;;;;;;30.15;27.54;102474.75;5139540;27;20027;-86